Time;durP1;ratioP1;P1;durP2;ratioP2;P2;SDS_P1;SDS_P2;PMS_P1;PMS_P2;Temp;Humidity;BMP_temperature;BMP_pressure;BME280_temperature;BME280_humidity;BME280_pressure;Samples;Min_cycle;Max_cycle;Signal;HPM_P1;HPM_P2
2021/12/22 00:00:05;;;;;;;7.67;2.23;;;;;;;-8.70;65.40;145521.08;1767597;79;21123;-60
2021/12/22 00:02:35;;;;;;;3.00;1.60;;;;;;;-8.72;65.65;145515.97;1774686;79;21264;-60
2021/12/22 00:05:02;;;;;;;2.57;1.50;;;;;;;-8.80;65.68;145496.81;1789493;79;21049;-60
2021/12/22 00:07:29;;;;;;;5.20;1.80;;;;;;;-8.83;66.04;145487.86;1771268;79;21536;-61
2021/12/22 00:09:56;;;;;;;4.17;1.90;;;;;;;-8.83;66.42;145487.86;1766238;81;21576;-60
2021/12/22 00:12:22;;;;;;;5.37;2.07;;;;;;;-8.84;66.63;145485.30;1780287;79;21037;-59
2021/12/22 00:14:49;;;;;;;4.77;1.90;;;;;;;-8.84;66.95;145485.30;1777821;79;21065;-59
2021/12/22 00:17:15;;;;;;;7.47;1.83;;;;;;;-8.82;67.14;145490.41;1766587;81;21025;-59
2021/12/22 00:19:42;;;;;;;7.30;2.30;;;;;;;-8.79;67.39;145498.06;1759310;80;21055;-59
2021/12/22 00:22:09;;;;;;;7.63;2.77;;;;;;;-8.75;67.67;145508.27;1748811;81;21108;-61
2021/12/22 00:24:36;;;;;;;5.83;2.60;;;;;;;-8.73;67.84;145513.42;1759530;81;21537;-59
2021/12/22 00:27:03;;;;;;;4.83;2.07;;;;;;;-8.71;68.03;145517.22;1745864;82;21120;-60
2021/12/22 00:29:30;;;;;;;7.00;2.40;;;;;;;-8.72;68.28;145515.97;1758126;81;21509;-59
2021/12/22 00:32:20;;;;;;;8.93;3.13;;;;;;;-8.69;68.39;145522.33;1738257;81;21069;-59
2021/12/22 00:34:27;;;;;;;6.93;2.97;;;;;;;-8.68;68.58;145524.88;1739606;80;20995;-60
2021/12/22 00:36:54;;;;;;;7.50;3.10;;;;;;;-8.66;68.72;145531.28;1743597;81;21540;-60
2021/12/22 00:39:21;;;;;;;7.77;3.20;;;;;;;-8.61;68.93;145541.50;1762985;81;20897;-59
2021/12/22 00:41:49;;;;;;;8.93;3.27;;;;;;;-8.61;68.99;145542.80;1761679;81;21035;-62
2021/12/22 00:44:16;;;;;;;7.30;2.50;;;;;;;-8.58;69.03;145549.16;1738902;81;21009;-58
2021/12/22 00:46:43;;;;;;;6.80;2.70;;;;;;;-8.57;69.08;145551.70;1748171;81;21280;-61
2021/12/22 00:49:10;;;;;;;10.30;2.90;;;;;;;-8.53;69.10;145563.22;1749918;81;21068;-58
2021/12/22 00:51:37;;;;;;;6.83;2.57;;;;;;;-8.49;69.04;145572.12;1738528;81;21580;-59
2021/12/22 00:54:03;;;;;;;5.10;2.17;;;;;;;-8.46;68.94;145579.78;1753400;81;21084;-59
2021/12/22 00:56:31;;;;;;;11.47;2.30;;;;;;;-8.45;68.91;145582.34;1752542;81;21007;-59
2021/12/22 00:58:58;;;;;;;4.30;2.00;;;;;;;-8.43;68.93;145587.44;1737010;81;21092;-60
2021/12/22 01:01:25;;;;;;;4.83;2.07;;;;;;;-8.40;68.79;145595.09;1746613;81;21119;-59
2021/12/22 01:03:52;;;;;;;8.00;2.60;;;;;;;-8.39;68.76;145596.41;1736977;81;21505;-61
2021/12/22 01:06:20;;;;;;;7.03;2.50;;;;;;;-8.39;68.65;145597.66;1760232;81;20913;-60
2021/12/22 01:08:47;;;;;;;7.40;2.60;;;;;;;-8.41;68.65;145591.25;1740321;81;21064;-61
2021/12/22 01:11:14;;;;;;;3.87;1.90;;;;;;;-8.44;68.67;145584.89;1750967;81;21382;-60
2021/12/22 01:13:41;;;;;;;4.43;2.23;;;;;;;-8.45;68.75;145582.34;1754122;79;21099;-61
2021/12/22 01:16:07;;;;;;;5.80;1.70;;;;;;;-8.43;68.80;145587.44;1738533;81;21533;-61
2021/12/22 01:18:36;;;;;;;3.93;1.77;;;;;;;-8.40;68.83;145593.80;1766167;81;21103;-61
2021/12/22 01:21:30;;;;;;;6.23;2.20;;;;;;;-8.39;68.78;145597.66;1803705;79;21003;-60
2021/12/22 01:24:02;;;;;;;5.40;2.20;;;;;;;-8.40;68.64;145595.09;1803525;79;21037;-59
2021/12/22 01:26:31;;;;;;;4.73;1.93;;;;;;;-8.39;68.70;145597.66;1758262;79;21097;-59
2021/12/22 01:28:59;;;;;;;5.60;1.97;;;;;;;-8.37;68.68;145602.75;1740501;82;21032;-58
2021/12/22 01:31:25;;;;;;;4.97;2.10;;;;;;;-8.38;68.77;145600.20;1738383;80;21157;-59
2021/12/22 01:33:52;;;;;;;5.40;1.90;;;;;;;-8.38;68.79;145600.20;1725106;82;21519;-60
2021/12/22 01:36:19;;;;;;;4.00;2.10;;;;;;;-8.35;68.84;145607.88;1725511;83;21005;-59
2021/12/22 01:38:45;;;;;;;5.80;2.50;;;;;;;-8.35;68.93;145607.88;1739965;81;21696;-59
2021/12/22 01:41:11;;;;;;;5.20;1.90;;;;;;;-8.32;69.00;145612.97;1756342;81;21096;-59
2021/12/22 01:43:38;;;;;;;6.80;2.60;;;;;;;-8.29;69.12;145620.63;1765124;80;21042;-60
2021/12/22 01:51:47;;;;;;;4.10;2.10;;;;;;;-8.20;69.50;145643.66;1739801;81;21047;-58
2021/12/22 01:54:31;;;;;;;4.57;2.20;;;;;;;-8.21;69.75;145641.09;1730923;80;21126;-59
2021/12/22 01:57:06;;;;;;;4.28;1.90;;;;;;;-8.18;70.09;145648.77;1764377;80;26680;-59
2021/12/22 01:59:30;;;;;;;5.27;2.60;;;;;;;-8.16;70.26;145653.88;1728568;81;21084;-59
2021/12/22 02:02:00;;;;;;;6.53;2.90;;;;;;;-8.13;70.63;145661.53;1764022;80;20971;-59
2021/12/22 02:04:26;;;;;;;7.13;2.50;;;;;;;-8.11;70.97;145666.64;1744368;81;21450;-59
2021/12/22 02:06:53;;;;;;;5.87;2.60;;;;;;;-8.11;71.22;145666.64;1737732;80;21125;-59
2021/12/22 02:09:50;;;;;;;5.27;2.40;;;;;;;-8.11;71.48;145666.64;1754274;79;21355;-59
2021/12/22 02:11:58;;;;;;;10.17;2.40;;;;;;;-8.12;71.63;145664.09;1756235;81;21073;-59
2021/12/22 02:14:24;;;;;;;3.63;2.03;;;;;;;-8.11;71.85;145666.64;1769560;80;21538;-59
2021/12/22 02:16:52;;;;;;;5.83;2.40;;;;;;;-8.14;71.99;145658.98;1744155;80;21069;-59
2021/12/22 02:19:19;;;;;;;5.63;2.20;;;;;;;-8.14;72.20;145658.98;1763726;80;21208;-60
2021/12/22 02:21:51;;;;;;;5.87;2.30;;;;;;;-8.14;72.36;145658.98;1755130;80;21067;-59
2021/12/22 02:24:14;;;;;;;5.33;2.17;;;;;;;-8.14;72.51;145657.72;1770415;80;21266;-61
2021/12/22 02:26:49;;;;;;;5.87;2.37;;;;;;;-8.14;72.64;145658.98;1773025;80;21718;-60
2021/12/22 02:29:34;;;;;;;3.57;2.03;;;;;;;-8.12;72.81;145664.09;1769512;80;21060;-61
2021/12/22 02:32:03;;;;;;;4.10;1.77;;;;;;;-8.14;72.81;145657.72;1777897;80;21140;-60
2021/12/22 02:34:22;;;;;;;4.70;2.20;;;;;;;-8.14;72.92;145658.98;1752727;80;21019;-58
2021/12/22 02:36:51;;;;;;;7.20;2.57;;;;;;;-8.11;73.01;145666.64;1757396;81;21065;-59
2021/12/22 02:39:17;;;;;;;5.27;1.97;;;;;;;-8.08;73.03;145674.30;1760724;81;21380;-59
2021/12/22 02:41:44;;;;;;;5.33;1.97;;;;;;;-8.08;73.11;145673.05;1746398;80;21019;-59
2021/12/22 02:44:11;;;;;;;3.60;2.10;;;;;;;-8.08;73.24;145674.30;1739636;80;21417;-59
2021/12/22 02:46:38;;;;;;;6.70;2.40;;;;;;;-8.08;73.29;145673.05;1759477;81;20946;-58
2021/12/22 02:49:07;;;;;;;8.37;2.13;;;;;;;-8.08;73.35;145674.30;1760753;81;21090;-59
2021/12/22 02:51:35;;;;;;;4.50;2.27;;;;;;;-8.06;73.42;145678.16;1757313;81;20998;-60
2021/12/22 02:56:52;;;;;;;4.17;1.80;;;;;;;-8.02;73.31;145687.11;1751603;81;21311;-60
2021/12/22 02:59:10;;;;;;;4.17;1.80;;;;;;;-8.01;73.28;145689.67;1739050;81;21116;-60
2021/12/22 03:02:05;;;;;;;5.03;1.83;;;;;;;-7.98;73.23;145697.34;1744751;80;20977;-60
2021/12/22 03:04:13;;;;;;;4.93;2.13;;;;;;;-7.95;73.27;145705.00;1741221;81;21008;-59
2021/12/22 03:09:27;;;;;;;8.07;2.00;;;;;;;-7.89;73.25;145720.31;1738610;81;21786;-60
2021/12/22 03:11:56;;;;;;;5.37;2.10;;;;;;;-7.88;73.32;145721.62;1739496;82;21072;-60
2021/12/22 03:14:25;;;;;;;3.97;2.00;;;;;;;-7.86;73.39;145727.98;1776138;79;20964;-60
2021/12/22 03:16:52;;;;;;;6.70;2.87;;;;;;;-7.85;73.36;145730.53;1773896;80;21955;-60
2021/12/22 03:19:22;;;;;;;5.53;2.33;;;;;;;-7.89;73.32;145720.31;1774982;80;20933;-60
2021/12/22 03:21:51;;;;;;;4.07;2.10;;;;;;;-7.92;73.52;145713.95;1769445;80;21497;-60
2021/12/22 03:24:20;;;;;;;4.77;2.07;;;;;;;-7.91;73.77;145716.52;1777543;80;20913;-59
2021/12/22 03:26:47;;;;;;;4.60;2.13;;;;;;;-7.88;73.96;145721.62;1777914;79;21519;-60
2021/12/22 03:29:17;;;;;;;5.53;2.37;;;;;;;-7.86;74.21;145727.98;1740768;82;21486;-59
2021/12/22 03:31:45;;;;;;;7.33;1.83;;;;;;;-7.82;74.31;145738.25;1752596;79;21635;-60
2021/12/22 03:34:13;;;;;;;5.73;1.97;;;;;;;-7.79;74.36;145744.61;1777531;79;21063;-61
2021/12/22 03:36:42;;;;;;;5.30;2.00;;;;;;;-7.77;74.40;145751.02;1777357;80;21488;-60
2021/12/22 03:39:09;;;;;;;5.07;2.27;;;;;;;-7.73;74.44;145759.98;1777482;80;21480;-59
2021/12/22 03:41:36;;;;;;;3.57;2.20;;;;;;;-7.71;74.45;145763.78;1776858;80;21138;-59
2021/12/22 03:44:05;;;;;;;7.63;2.53;;;;;;;-7.72;74.46;145762.53;1777505;79;21521;-60
2021/12/22 03:46:32;;;;;;;5.17;2.50;;;;;;;-7.71;74.47;145763.78;1776996;80;21140;-59
2021/12/22 03:48:59;;;;;;;6.80;2.20;;;;;;;-7.70;74.53;145767.64;1771262;80;21080;-60
2021/12/22 03:51:28;;;;;;;3.40;1.83;;;;;;;-7.68;74.56;145771.45;1760921;79;21020;-60
2021/12/22 03:53:55;;;;;;;5.40;2.20;;;;;;;-7.66;74.62;145776.56;1752708;80;21027;-60
2021/12/22 03:56:22;;;;;;;5.03;2.10;;;;;;;-7.66;74.67;145776.56;1772204;79;21506;-59
2021/12/22 03:58:49;;;;;;;5.77;2.20;;;;;;;-7.65;74.74;145780.42;1774917;79;21119;-60
2021/12/22 04:01:18;;;;;;;4.93;2.50;;;;;;;-7.60;74.80;145791.94;1768074;79;21584;-57
2021/12/22 04:03:49;;;;;;;4.87;2.53;;;;;;;-7.57;74.73;145799.59;1763611;79;22239;-61
2021/12/22 04:06:14;;;;;;;3.60;2.00;;;;;;;-7.56;74.60;145802.16;1752796;80;21095;-60
2021/12/22 04:08:41;;;;;;;5.80;2.50;;;;;;;-7.54;74.46;145807.27;1749619;82;20967;-61
2021/12/22 04:11:08;;;;;;;5.20;2.20;;;;;;;-7.53;74.34;145809.81;1765324;80;21465;-60
2021/12/22 04:13:35;;;;;;;4.57;1.97;;;;;;;-7.50;74.16;145817.48;1770141;80;20940;-59
2021/12/22 04:16:04;;;;;;;4.60;2.30;;;;;;;-7.44;74.10;145831.56;1792346;79;21027;-60
2021/12/22 04:18:31;;;;;;;10.13;2.47;;;;;;;-7.41;73.89;145837.92;1738222;82;21391;-60
2021/12/22 04:20:58;;;;;;;5.20;2.67;;;;;;;-7.38;73.81;145845.64;1742373;79;21539;-60
2021/12/22 04:23:27;;;;;;;7.13;2.80;;;;;;;-7.35;73.68;145854.56;1764327;81;20918;-59
2021/12/22 04:25:53;;;;;;;8.20;3.30;;;;;;;-7.32;73.54;145860.97;1751350;81;21581;-60
2021/12/22 04:28:21;;;;;;;7.20;3.13;;;;;;;-7.31;73.34;145863.53;1756532;81;20902;-59
2021/12/22 04:30:50;;;;;;;5.77;2.63;;;;;;;-7.33;73.28;145858.42;1757804;80;20988;-60
2021/12/22 04:33:19;;;;;;;5.33;2.53;;;;;;;-7.32;73.23;145859.67;1749511;80;21060;-60
2021/12/22 04:35:48;;;;;;;5.50;2.90;;;;;;;-7.34;73.25;145855.86;1768549;79;21111;-61
2021/12/22 04:38:16;;;;;;;5.27;2.47;;;;;;;-7.31;73.34;145862.23;1760527;81;21521;-62
2021/12/22 04:40:45;;;;;;;6.87;2.60;;;;;;;-7.30;73.39;145866.09;1741847;79;21074;-60
2021/12/22 04:43:11;;;;;;;10.30;3.03;;;;;;;-7.27;73.50;145873.75;1736076;81;21111;-60
2021/12/22 04:45:39;;;;;;;7.63;3.30;;;;;;;-7.26;73.56;145876.31;1764256;81;21092;-60
2021/12/22 04:48:06;;;;;;;9.27;3.70;;;;;;;-7.21;73.58;145889.08;1748151;81;22044;-63
2021/12/22 04:50:36;;;;;;;7.70;3.40;;;;;;;-7.18;73.52;145895.50;1759733;81;20942;-60
2021/12/22 04:53:15;;;;;;;7.47;3.53;;;;;;;-7.16;73.49;145899.36;1791653;79;21020;-59
2021/12/22 04:55:39;;;;;;;7.50;2.90;;;;;;;-7.14;73.42;145904.47;1767171;81;21703;-59
2021/12/22 04:58:06;;;;;;;9.03;2.63;;;;;;;-7.13;73.34;145907.02;1760839;80;21040;-59
2021/12/22 05:00:35;;;;;;;9.30;2.93;;;;;;;-7.11;73.25;145912.13;1754316;80;21099;-59
2021/12/22 05:03:02;;;;;;;9.67;3.00;;;;;;;-7.09;73.21;145918.50;1747062;80;21095;-59
2021/12/22 05:05:29;;;;;;;6.87;3.03;;;;;;;-7.05;73.08;145928.78;1769601;80;21005;-61
2021/12/22 05:07:56;;;;;;;6.37;2.80;;;;;;;-7.00;72.90;145939.00;1767546;80;21210;-59
2021/12/22 05:10:24;;;;;;;8.07;3.13;;;;;;;-6.98;72.59;145945.36;1760166;80;21100;-60
2021/12/22 05:12:51;;;;;;;7.67;3.10;;;;;;;-6.97;72.36;145947.92;1755356;80;21507;-59
2021/12/22 05:15:21;;;;;;;8.80;2.97;;;;;;;-6.94;72.18;145955.64;1745629;80;21023;-60
2021/12/22 05:20:22;;;;;;;8.17;2.53;;;;;;;-6.88;71.58;145968.42;1757690;80;21009;-59
2021/12/22 05:22:48;;;;;;;8.37;3.00;;;;;;;-6.86;71.43;145973.53;1775277;80;21042;-60
2021/12/22 05:25:16;;;;;;;11.80;3.23;;;;;;;-6.81;71.22;145986.31;1779371;80;21481;-63
2021/12/22 05:27:43;;;;;;;8.97;3.30;;;;;;;-6.78;71.07;145993.98;1728458;80;21072;-59
2021/12/22 05:30:11;;;;;;;9.10;2.90;;;;;;;-6.73;70.89;146006.81;1765671;80;21569;-60
2021/12/22 05:32:38;;;;;;;8.67;3.97;;;;;;;-6.69;70.78;146017.05;1749089;80;20972;-58
2021/12/22 05:35:07;;;;;;;8.93;3.90;;;;;;;-6.64;70.59;146029.83;1778978;80;21106;-61
2021/12/22 05:37:34;;;;;;;8.43;4.77;;;;;;;-6.59;70.46;146040.06;1739576;81;21558;-60
2021/12/22 05:40:01;;;;;;;8.33;3.50;;;;;;;-6.54;70.31;146052.84;1730897;81;21567;-60
2021/12/22 05:42:28;;;;;;;9.03;3.33;;;;;;;-6.49;70.15;146065.67;1779853;79;20978;-62
2021/12/22 05:44:56;;;;;;;11.47;3.73;;;;;;;-6.44;70.06;146078.47;1778892;80;21616;-62
2021/12/22 05:47:23;;;;;;;8.10;3.00;;;;;;;-6.40;69.87;146088.69;1733276;82;21548;-59
2021/12/22 05:49:49;;;;;;;8.67;2.80;;;;;;;-6.35;69.77;146101.47;1761944;80;21111;-59
2021/12/22 05:52:17;;;;;;;10.83;3.27;;;;;;;-6.30;69.56;146113.02;1740958;82;21076;-59
2021/12/22 05:54:45;;;;;;;8.50;3.27;;;;;;;-6.24;69.41;146127.09;1778831;80;20989;-60
2021/12/22 05:57:12;;;;;;;7.40;3.03;;;;;;;-6.18;69.28;146142.45;1763446;80;21033;-62
2021/12/22 05:59:38;;;;;;;8.03;3.03;;;;;;;-6.10;69.10;146162.91;1748590;80;21035;-59
2021/12/22 06:02:05;;;;;;;15.73;3.53;;;;;;;-6.03;68.77;146178.31;1763060;80;21329;-61
2021/12/22 06:04:32;;;;;;;13.97;2.77;;;;;;;-5.97;68.40;146193.63;1771438;80;21068;-61
2021/12/22 06:06:59;;;;;;;8.00;3.00;;;;;;;-5.92;68.09;146206.41;1763077;80;21213;-59
2021/12/22 06:09:26;;;;;;;11.97;3.83;;;;;;;-5.89;67.80;146214.09;1748705;80;21112;-62
2021/12/22 06:11:53;;;;;;;9.27;3.43;;;;;;;-5.85;67.54;146224.37;1751077;80;21139;-60
2021/12/22 06:14:21;;;;;;;8.70;3.40;;;;;;;-5.81;67.28;146234.61;1760781;79;21516;-61
2021/12/22 06:16:47;;;;;;;6.67;3.30;;;;;;;-5.77;67.02;146244.84;1755633;80;21078;-61
2021/12/22 06:19:15;;;;;;;10.33;2.97;;;;;;;-5.73;66.87;146252.52;1773471;80;21482;-60
2021/12/22 06:21:42;;;;;;;15.13;3.67;;;;;;;-5.68;66.72;146265.31;1752659;80;21062;-59
2021/12/22 06:24:09;;;;;;;10.23;3.97;;;;;;;-5.64;66.62;146275.55;1767534;80;20992;-59
2021/12/22 06:26:37;;;;;;;5.80;3.17;;;;;;;-5.58;66.55;146289.66;1783886;80;21772;-59
2021/12/22 06:29:05;;;;;;;8.10;3.13;;;;;;;-5.50;66.39;146311.44;1777324;78;21099;-61
2021/12/22 06:31:32;;;;;;;15.97;3.10;;;;;;;-5.43;66.24;146326.78;1788594;78;21015;-60
2021/12/22 06:33:59;;;;;;;7.23;3.50;;;;;;;-5.39;65.97;146338.33;1790550;78;21543;-60
2021/12/22 06:36:26;;;;;;;10.30;3.03;;;;;;;-5.35;65.78;146347.31;1768595;78;21040;-61
2021/12/22 06:38:52;;;;;;;7.77;3.37;;;;;;;-5.33;65.51;146352.44;1752536;80;21673;-59
2021/12/22 06:41:19;;;;;;;14.77;3.37;;;;;;;-5.30;65.58;146360.13;1780774;79;21098;-59
2021/12/22 06:43:47;;;;;;;7.47;2.90;;;;;;;-5.23;65.55;146378.03;1770290;79;21066;-59
2021/12/22 06:46:13;;;;;;;10.07;2.83;;;;;;;-5.14;65.31;146398.56;1775151;79;21035;-61
2021/12/22 06:48:40;;;;;;;12.87;3.30;;;;;;;-5.09;65.07;146412.63;1788347;79;21126;-59
2021/12/22 06:51:07;;;;;;;8.73;2.97;;;;;;;-5.01;64.94;146431.86;1769696;78;21143;-61
2021/12/22 06:53:38;;;;;;;12.67;4.40;;;;;;;-4.92;64.87;146454.95;1772242;80;20978;-61
2021/12/22 06:56:05;;;;;;;8.37;3.80;;;;;;;-4.84;64.60;146474.19;1786747;78;21064;-60
2021/12/22 06:58:32;;;;;;;7.67;3.60;;;;;;;-4.78;64.23;146488.25;1772247;80;20907;-59
2021/12/22 07:00:59;;;;;;;7.30;3.50;;;;;;;-4.73;64.10;146501.09;1770530;78;21234;-60
2021/12/22 07:03:26;;;;;;;7.87;3.37;;;;;;;-4.66;63.97;146519.03;1763952;80;21576;-60
2021/12/22 07:05:53;;;;;;;10.00;3.33;;;;;;;-4.58;63.79;146536.95;1775310;78;21101;-61
2021/12/22 07:08:20;;;;;;;6.93;3.50;;;;;;;-4.51;63.55;146554.94;1768826;80;21032;-60
2021/12/22 07:10:47;;;;;;;15.93;4.63;;;;;;;-4.45;63.35;146570.31;1776140;80;21111;-59
2021/12/22 07:13:14;;;;;;;6.07;3.13;;;;;;;-4.43;62.86;146575.44;1795291;78;21027;-60
2021/12/22 07:15:43;;;;;;;9.97;3.70;;;;;;;-4.44;62.61;146572.87;1793871;78;21517;-60
2021/12/22 07:18:11;;;;;;;10.07;3.90;;;;;;;-4.43;62.50;146575.44;1802134;78;21558;-61
2021/12/22 07:20:39;;;;;;;12.03;3.73;;;;;;;-4.41;62.34;146580.56;1794098;78;20993;-60
2021/12/22 07:23:06;;;;;;;16.27;3.80;;;;;;;-4.40;62.21;146581.86;1735894;80;21076;-60
2021/12/22 07:25:33;;;;;;;11.23;3.70;;;;;;;-4.41;62.15;146580.56;1734435;80;21079;-60
2021/12/22 07:28:00;;;;;;;10.60;4.07;;;;;;;-4.39;62.24;146584.42;1738425;80;21673;-60
2021/12/22 07:30:27;;;;;;;7.23;3.50;;;;;;;-4.35;62.23;146594.67;1783829;79;21032;-60
2021/12/22 07:32:54;;;;;;;8.73;3.27;;;;;;;-4.28;62.15;146611.34;1769129;79;21010;-60
2021/12/22 07:35:42;;;;;;;13.53;3.50;;;;;;;-4.21;62.08;146630.55;1785134;79;21059;-61
2021/12/22 07:38:37;;;;;;;12.47;4.20;;;;;;;-4.12;61.94;146652.34;1790472;79;21687;-61
2021/12/22 07:41:04;;;;;;;8.68;3.05;;;;;;;-4.04;61.51;146672.91;1767896;79;21083;-60
2021/12/22 07:43:32;;;;;;;8.63;3.60;;;;;;;-3.98;61.15;146685.72;1774667;80;21019;-60
2021/12/22 07:45:58;;;;;;;10.53;3.97;;;;;;;-3.96;60.75;146692.14;1758072;79;21561;-60
2021/12/22 07:48:25;;;;;;;7.23;3.30;;;;;;;-3.93;60.59;146698.53;1770426;79;21189;-60
2021/12/22 07:50:52;;;;;;;11.37;3.73;;;;;;;-3.86;60.48;146716.52;1768219;79;21063;-60
2021/12/22 07:53:20;;;;;;;9.40;3.40;;;;;;;-3.78;60.33;146737.03;1771023;80;21927;-60
2021/12/22 07:55:46;;;;;;;7.13;3.67;;;;;;;-3.69;60.10;146757.53;1773779;79;21527;-61
2021/12/22 07:58:14;;;;;;;17.33;3.83;;;;;;;-3.62;59.86;146775.53;1760259;80;21091;-59
2021/12/22 08:00:41;;;;;;;9.93;3.40;;;;;;;-3.58;59.56;146785.78;1772464;80;21019;-58
2021/12/22 08:03:08;;;;;;;11.23;3.90;;;;;;;-3.51;59.38;146803.73;1749150;80;21080;-61
2021/12/22 08:05:36;;;;;;;8.33;3.83;;;;;;;-3.43;59.13;146821.69;1762746;79;21259;-59
2021/12/22 08:08:04;;;;;;;13.07;3.57;;;;;;;-3.35;58.89;146842.25;1744577;80;21699;-61
2021/12/22 08:10:31;;;;;;;6.97;3.67;;;;;;;-3.27;58.54;146861.50;1770811;79;20932;-59
2021/12/22 08:12:58;;;;;;;10.93;3.33;;;;;;;-3.19;58.26;146883.33;1770419;79;21086;-61
2021/12/22 08:15:25;;;;;;;8.13;3.77;;;;;;;-3.08;58.02;146908.97;1770216;79;21015;-60
2021/12/22 08:17:58;;;;;;;10.37;3.90;;;;;;;-3.03;57.44;146921.80;1754497;79;21050;-60
2021/12/22 08:20:28;;;;;;;12.50;4.70;;;;;;;-2.97;56.94;146937.23;1704015;80;21153;-60
2021/12/22 08:22:55;;;;;;;14.90;3.93;;;;;;;-2.93;56.71;146947.50;1768260;79;21071;-61
2021/12/22 08:25:22;;;;;;;483.07;156.30;;;;;;;-2.86;56.48;146962.89;1769221;80;21044;-60
2021/12/22 08:27:49;;;;;;;13.80;5.70;;;;;;;-2.80;56.39;146979.59;1769914;79;21694;-61
2021/12/22 08:30:17;;;;;;;15.05;4.17;;;;;;;-2.70;56.17;147002.69;1791954;78;21366;-60
2021/12/22 08:32:44;;;;;;;13.47;4.63;;;;;;;-2.64;55.84;147019.38;1777814;79;21055;-61
2021/12/22 08:35:14;;;;;;;12.80;4.10;;;;;;;-2.59;55.70;147030.95;1791040;78;21035;-60
2021/12/22 08:40:25;;;;;;;;;;;;;;;-2.49;55.12;147055.36;1764853;79;21095;-61
2021/12/22 08:42:52;;;;;;;8.50;4.00;;;;;;;-2.44;54.96;147068.19;1768321;80;21124;-60
2021/12/22 08:45:19;;;;;;;12.10;4.20;;;;;;;-2.42;54.37;147073.31;1767820;79;21172;-59
2021/12/22 08:47:46;;;;;;;27.52;4.78;;;;;;;-2.42;54.29;147073.31;1770988;79;21095;-61
2021/12/22 08:50:14;;;;;;;19.77;4.73;;;;;;;-2.39;54.25;147081.03;1767245;79;21072;-60
2021/12/22 08:52:41;;;;;;;9.87;3.73;;;;;;;-2.33;54.06;147095.16;1766734;79;21158;-60
2021/12/22 08:55:09;;;;;;;13.35;4.42;;;;;;;-2.28;53.96;147106.75;1767678;79;21054;-60
2021/12/22 08:57:36;;;;;;;9.83;4.42;;;;;;;-2.26;53.59;147111.87;1776650;79;21032;-60
2021/12/22 09:00:09;;;;;;;7.83;4.15;;;;;;;-2.24;53.42;147117.00;1764837;79;21555;-59
2021/12/22 09:02:38;;;;;;;8.70;4.03;;;;;;;-2.23;53.25;147119.56;1767030;79;21465;-60
2021/12/22 09:05:06;;;;;;;15.03;4.77;;;;;;;-2.21;52.99;147126.02;1768126;79;21102;-60
2021/12/22 09:07:33;;;;;;;16.57;3.60;;;;;;;-2.20;52.89;147127.28;1769539;79;21104;-60
2021/12/22 09:10:02;;;;;;;11.20;4.30;;;;;;;-2.12;52.77;147147.81;1768514;79;21498;-61
2021/12/22 09:12:29;;;;;;;24.07;5.80;;;;;;;-2.06;52.64;147163.27;1761047;79;21608;-61
2021/12/22 09:14:57;;;;;;;10.05;4.03;;;;;;;-2.00;52.39;147176.09;1768424;79;21096;-61
2021/12/22 09:17:24;;;;;;;19.12;4.30;;;;;;;-1.93;52.37;147194.06;1763822;79;21016;-61
2021/12/22 09:19:52;;;;;;;14.87;4.47;;;;;;;-1.89;51.99;147204.34;1770129;79;21273;-60
2021/12/22 09:22:20;;;;;;;13.28;4.55;;;;;;;-1.80;51.95;147227.50;1757369;80;21053;-60
2021/12/22 09:24:47;;;;;;;13.75;4.45;;;;;;;-1.69;51.93;147253.17;1759482;80;21013;-62
2021/12/22 09:27:14;;;;;;;18.05;4.85;;;;;;;-1.56;51.82;147286.61;1751501;80;21064;-60
2021/12/22 09:29:44;;;;;;;12.28;4.53;;;;;;;-1.43;51.48;147317.48;1749388;80;21148;-59
2021/12/22 09:32:15;;;;;;;14.98;5.42;;;;;;;-1.31;51.09;147348.31;1747081;80;21925;-59
2021/12/22 09:34:43;;;;;;;14.80;5.53;;;;;;;-1.25;50.57;147363.72;1749759;80;21538;-62
2021/12/22 09:37:09;;;;;;;22.95;4.75;;;;;;;-1.26;50.57;147361.16;1754012;80;21085;-60
2021/12/22 09:39:37;;;;;;;20.77;5.08;;;;;;;-1.24;50.34;147366.28;1749081;80;21059;-60
2021/12/22 09:42:05;;;;;;;11.33;4.20;;;;;;;-1.21;50.17;147372.73;1754568;80;21318;-60
2021/12/22 09:44:37;;;;;;;21.05;4.50;;;;;;;-1.18;49.76;147381.75;1754946;80;21972;-61
2021/12/22 09:47:05;;;;;;;14.58;5.45;;;;;;;-1.24;49.24;147366.28;1776881;79;21069;-60
2021/12/22 09:52:27;;;;;;;15.83;5.08;;;;;;;-1.54;49.85;147290.48;1755782;80;21131;-61
2021/12/22 09:55:01;;;;;;;8.90;3.50;;;;;;;-1.50;49.94;147302.02;1752949;80;27256;-61
2021/12/22 09:57:27;;;;;;;14.07;4.87;;;;;;;-1.59;49.20;147280.16;1751894;80;21123;-60
2021/12/22 09:59:55;;;;;;;9.98;4.22;;;;;;;-1.77;49.55;147235.20;1759813;79;21745;-61
2021/12/22 10:02:26;;;;;;;15.83;4.25;;;;;;;-1.92;50.03;147196.64;1765899;79;21535;-60
2021/12/22 10:04:53;;;;;;;8.93;4.20;;;;;;;-2.08;50.46;147158.12;1741762;80;21664;-60
2021/12/22 10:07:24;;;;;;;14.60;3.90;;;;;;;-2.21;50.79;147126.02;1758590;80;21059;-59
2021/12/22 10:09:49;;;;;;;8.73;3.75;;;;;;;-2.31;51.18;147101.59;1686439;80;21193;-60
2021/12/22 10:12:20;;;;;;;8.88;4.33;;;;;;;-2.42;51.54;147073.31;1749395;80;21008;-61
2021/12/22 10:14:56;;;;;;;12.98;4.95;;;;;;;-2.49;51.74;147055.36;1745292;80;21044;-59
2021/12/22 10:17:39;;;;;;;10.55;4.70;;;;;;;-2.60;51.87;147028.39;1777818;79;21096;-60
2021/12/22 10:20:15;;;;;;;10.63;5.15;;;;;;;-2.68;52.24;147009.12;1756509;79;21096;-61
2021/12/22 10:22:47;;;;;;;13.80;4.90;;;;;;;-2.69;52.71;147005.25;1756332;80;21932;-61
2021/12/22 10:25:28;;;;;;;31.15;5.25;;;;;;;-2.70;52.68;147003.98;1742497;80;20974;-62
2021/12/22 10:28:04;;;;;;;20.15;5.80;;;;;;;-2.70;52.89;147002.69;1775982;79;21780;-60
2021/12/22 10:30:36;;;;;;;11.38;4.85;;;;;;;-2.69;53.07;147006.56;1788792;78;21535;-60
2021/12/22 10:33:15;;;;;;;19.07;5.17;;;;;;;-2.67;53.24;147011.69;1753670;80;21807;-61
2021/12/22 10:35:49;;;;;;;14.73;4.15;;;;;;;-2.61;53.26;147025.83;1752803;80;22619;-62
2021/12/22 10:38:19;;;;;;;11.43;4.83;;;;;;;-2.56;53.20;147037.34;1748801;80;21061;-61
2021/12/22 10:40:49;;;;;;;12.80;4.67;;;;;;;-2.54;53.20;147042.47;1752713;80;21501;-60
2021/12/22 10:43:23;;;;;;;20.90;5.20;;;;;;;-2.56;52.92;147037.34;1750950;80;21068;-60
2021/12/22 10:45:56;;;;;;;15.70;4.85;;;;;;;-2.62;53.33;147024.52;1762835;80;26997;-60
2021/12/22 10:51:14;;;;;;;14.17;4.37;;;;;;;-2.59;53.37;147032.22;1782262;79;21042;-61
2021/12/22 10:53:46;;;;;;;14.85;5.12;;;;;;;-2.63;53.15;147021.95;1747501;79;21046;-60
2021/12/22 10:56:27;;;;;;;13.03;5.42;;;;;;;-2.71;53.32;147000.13;1760260;80;21014;-61
2021/12/22 10:59:09;;;;;;;16.85;5.80;;;;;;;-2.78;53.65;146984.72;1764970;79;21175;-60
2021/12/22 11:02:07;;;;;;;11.53;5.10;;;;;;;-2.80;53.94;146978.28;1765209;79;21050;-59
2021/12/22 11:04:30;;;;;;;14.10;5.20;;;;;;;-2.80;54.25;146979.59;1768201;79;21072;-61
2021/12/22 11:07:09;;;;;;;19.43;5.27;;;;;;;-2.83;54.27;146970.59;1769621;79;21080;-59
2021/12/22 11:09:36;;;;;;;15.40;4.80;;;;;;;-2.90;54.66;146953.89;1771003;79;21380;-60
2021/12/22 11:12:13;;;;;;;13.48;4.97;;;;;;;-2.93;55.08;146946.19;1733463;79;21055;-60
2021/12/22 11:14:41;;;;;;;12.23;5.33;;;;;;;-2.96;55.47;146939.81;1767683;79;21092;-60
2021/12/22 11:17:20;;;;;;;12.93;5.93;;;;;;;-2.90;55.86;146955.19;1762858;79;21650;-60
2021/12/22 11:19:57;;;;;;;12.70;5.45;;;;;;;-2.76;55.92;146988.59;1761912;80;21087;-60
2021/12/22 11:22:36;;;;;;;13.48;5.95;;;;;;;-2.61;56.00;147025.83;1778816;79;21580;-60
2021/12/22 11:24:54;;;;;;;16.33;5.50;;;;;;;-2.51;55.84;147050.22;1723604;80;21144;-59
2021/12/22 11:27:24;;;;;;;12.68;5.47;;;;;;;-2.42;55.68;147073.31;1768903;79;21744;-60
2021/12/22 11:29:57;;;;;;;15.48;6.80;;;;;;;-2.39;55.48;147081.03;1795934;78;21525;-61
2021/12/22 11:32:26;;;;;;;17.35;5.45;;;;;;;-2.39;55.48;147079.77;1775752;79;21070;-60
2021/12/22 11:34:56;;;;;;;13.35;5.40;;;;;;;-2.36;55.42;147088.72;1771320;79;21055;-60
2021/12/22 11:37:23;;;;;;;17.90;5.72;;;;;;;-2.34;55.35;147092.59;1769432;79;21037;-60
2021/12/22 11:39:50;;;;;;;19.60;5.72;;;;;;;-2.31;55.22;147101.59;1791456;77;21119;-60
2021/12/22 11:42:19;;;;;;;17.02;6.00;;;;;;;-2.29;55.09;147104.17;1758258;79;22143;-61
2021/12/22 11:44:51;;;;;;;19.23;6.70;;;;;;;-2.25;55.39;147114.44;1773516;79;20970;-61
2021/12/22 11:47:17;;;;;;;14.23;5.55;;;;;;;-2.16;55.23;147137.53;1767605;80;21240;-62
2021/12/22 11:49:57;;;;;;;21.73;6.55;;;;;;;-2.14;54.96;147142.67;1767960;79;21084;-60